Allouez, Wisconsin
Current Conditions -  °F | °C
As of 4:53 AM on Thursday 23 Oct 2014 (Local Time) from KGRB Reporting Station
Clear Clear  
Wind Chill: 34°   Ceiling: Unl
Heat Index: 39°   Visibility: 10mi
Dew Point: 37°   Wind: 7mph
Humidity: 93%   Direction: 190°S
Pressure: 30.19"   Gusts: NA
Location:  44.48°N, 88.02°W
Report Text: KGRB 230953Z AUTO 19006KT 10SM CLR 04/03 A3019 RMK AO2 SLP229 T00390028
Loading
Personal Weather Stations






























Interactive Weather Map
Tropical Storm Tracking
New forecast layout! Learn more

10-Day Weather Forecast

Advertisements
Track Severe Weather on mobile